sensor_id;sensor_type;location;lat;lon;timestamp;pressure;altitude;pressure_sealevel;temperature;humidity
29935;BME280;19905;53.370;-6.314;2022-11-10T00:01:17;100177.94;;;12.83;100.00
29935;BME280;19905;53.370;-6.314;2022-11-10T00:03:47;100169.53;;;12.78;100.00
29935;BME280;19905;53.370;-6.314;2022-11-10T00:06:16;100193.41;;;12.78;100.00
29935;BME280;19905;53.370;-6.314;2022-11-10T00:08:45;100189.91;;;12.78;100.00
29935;BME280;19905;53.370;-6.314;2022-11-10T00:11:14;100183.66;;;12.69;100.00
29935;BME280;19905;53.370;-6.314;2022-11-10T00:13:47;100183.34;;;12.82;100.00
29935;BME280;19905;53.370;-6.314;2022-11-10T00:16:32;100186.56;;;12.85;100.00
29935;BME280;19905;53.370;-6.314;2022-11-10T00:19:18;100183.91;;;12.85;100.00
29935;BME280;19905;53.370;-6.314;2022-11-10T00:21:47;100179.72;;;12.83;100.00
29935;BME280;19905;53.370;-6.314;2022-11-10T00:24:15;100209.41;;;12.86;100.00
29935;BME280;19905;53.370;-6.314;2022-11-10T00:26:45;100174.28;;;12.84;100.00
29935;BME280;19905;53.370;-6.314;2022-11-10T00:29:15;100185.00;;;12.83;100.00
29935;BME280;19905;53.370;-6.314;2022-11-10T00:31:44;100187.41;;;12.76;100.00
29935;BME280;19905;53.370;-6.314;2022-11-10T00:34:15;100200.81;;;12.75;100.00
29935;BME280;19905;53.370;-6.314;2022-11-10T00:36:43;100186.44;;;12.77;100.00
29935;BME280;19905;53.370;-6.314;2022-11-10T00:39:12;100192.56;;;12.78;100.00
29935;BME280;19905;53.370;-6.314;2022-11-10T00:41:41;100188.81;;;12.80;100.00
29935;BME280;19905;53.370;-6.314;2022-11-10T00:44:11;100219.03;;;12.87;100.00
29935;BME280;19905;53.370;-6.314;2022-11-10T00:46:41;100206.22;;;12.92;100.00
29935;BME280;19905;53.370;-6.314;2022-11-10T00:49:09;100203.97;;;12.97;100.00
29935;BME280;19905;53.370;-6.314;2022-11-10T00:51:38;100184.03;;;12.93;100.00
29935;BME280;19905;53.370;-6.314;2022-11-10T00:54:07;100197.41;;;12.92;100.00
29935;BME280;19905;53.370;-6.314;2022-11-10T00:56:36;100215.84;;;12.93;100.00
29935;BME280;19905;53.370;-6.314;2022-11-10T00:59:05;100214.41;;;12.99;100.00
29935;BME280;19905;53.370;-6.314;2022-11-10T01:01:34;100213.81;;;13.05;100.00
29935;BME280;19905;53.370;-6.314;2022-11-10T01:04:05;100198.78;;;13.06;100.00
29935;BME280;19905;53.370;-6.314;2022-11-10T01:06:34;100197.91;;;13.05;100.00
29935;BME280;19905;53.370;-6.314;2022-11-10T01:09:03;100198.78;;;13.06;100.00
29935;BME280;19905;53.370;-6.314;2022-11-10T01:11:32;100189.25;;;13.13;100.00
29935;BME280;19905;53.370;-6.314;2022-11-10T01:14:00;100212.56;;;13.09;100.00
29935;BME280;19905;53.370;-6.314;2022-11-10T01:16:30;100219.56;;;13.10;100.00
29935;BME280;19905;53.370;-6.314;2022-11-10T01:19:00;100216.59;;;13.13;100.00
29935;BME280;19905;53.370;-6.314;2022-11-10T01:21:32;100214.25;;;13.10;100.00
29935;BME280;19905;53.370;-6.314;2022-11-10T01:24:03;100228.63;;;13.08;100.00
29935;BME280;19905;53.370;-6.314;2022-11-10T01:26:32;100219.94;;;13.15;100.00
29935;BME280;19905;53.370;-6.314;2022-11-10T01:29:00;100200.56;;;13.15;100.00
29935;BME280;19905;53.370;-6.314;2022-11-10T01:31:30;100221.75;;;13.15;100.00
29935;BME280;19905;53.370;-6.314;2022-11-10T01:33:59;100225.78;;;13.19;100.00
29935;BME280;19905;53.370;-6.314;2022-11-10T01:36:28;100216.34;;;13.07;100.00
29935;BME280;19905;53.370;-6.314;2022-11-10T01:39:00;100217.91;;;13.00;100.00
29935;BME280;19905;53.370;-6.314;2022-11-10T01:41:28;100217.03;;;13.09;100.00
29935;BME280;19905;53.370;-6.314;2022-11-10T01:44:15;100194.31;;;12.96;100.00
29935;BME280;19905;53.370;-6.314;2022-11-10T01:46:43;100223.63;;;12.95;100.00
29935;BME280;19905;53.370;-6.314;2022-11-10T01:49:14;100218.31;;;12.95;100.00
29935;BME280;19905;53.370;-6.314;2022-11-10T01:51:47;100228.38;;;12.91;100.00
29935;BME280;19905;53.370;-6.314;2022-11-10T01:54:21;100235.25;;;12.84;100.00
29935;BME280;19905;53.370;-6.314;2022-11-10T01:56:56;100232.28;;;12.87;100.00
29935;BME280;19905;53.370;-6.314;2022-11-10T01:59:29;100226.31;;;12.85;100.00
29935;BME280;19905;53.370;-6.314;2022-11-10T02:02:08;100219.34;;;12.84;100.00
29935;BME280;19905;53.370;-6.314;2022-11-10T02:04:39;100226.72;;;12.90;100.00
29935;BME280;19905;53.370;-6.314;2022-11-10T02:07:10;100245.66;;;12.95;100.00
29935;BME280;19905;53.370;-6.314;2022-11-10T02:09:41;100233.00;;;12.89;100.00
29935;BME280;19905;53.370;-6.314;2022-11-10T02:12:10;100241.09;;;12.88;100.00
29935;BME280;19905;53.370;-6.314;2022-11-10T02:14:39;100237.75;;;12.86;100.00
29935;BME280;19905;53.370;-6.314;2022-11-10T02:17:09;100234.00;;;12.79;100.00
29935;BME280;19905;53.370;-6.314;2022-11-10T02:19:39;100255.22;;;12.79;100.00
29935;BME280;19905;53.370;-6.314;2022-11-10T02:22:10;100248.19;;;12.87;100.00
29935;BME280;19905;53.370;-6.314;2022-11-10T02:24:39;100254.34;;;12.78;100.00
29935;BME280;19905;53.370;-6.314;2022-11-10T02:27:07;100246.53;;;12.86;100.00
29935;BME280;19905;53.370;-6.314;2022-11-10T02:29:36;100242.22;;;12.85;100.00
29935;BME280;19905;53.370;-6.314;2022-11-10T02:32:05;100235.25;;;12.84;100.00
29935;BME280;19905;53.370;-6.314;2022-11-10T02:34:33;100235.66;;;12.89;100.00
29935;BME280;19905;53.370;-6.314;2022-11-10T02:37:02;100240.13;;;12.89;100.00
29935;BME280;19905;53.370;-6.314;2022-11-10T02:39:32;100227.25;;;12.94;100.00
29935;BME280;19905;53.370;-6.314;2022-11-10T02:42:01;100218.72;;;13.00;100.00
29935;BME280;19905;53.370;-6.314;2022-11-10T02:44:30;100239.50;;;13.05;100.00
29935;BME280;19905;53.370;-6.314;2022-11-10T02:46:59;100230.44;;;13.07;100.00
29935;BME280;19905;53.370;-6.314;2022-11-10T02:49:28;100232.78;;;13.20;100.00
29935;BME280;19905;53.370;-6.314;2022-11-10T02:51:56;100219.94;;;13.15;100.00
29935;BME280;19905;53.370;-6.314;2022-11-10T02:54:25;100228.13;;;13.32;100.00
29935;BME280;19905;53.370;-6.314;2022-11-10T02:56:55;100236.13;;;13.22;100.00
29935;BME280;19905;53.370;-6.314;2022-11-10T02:59:24;100231.22;;;13.17;100.00
29935;BME280;19905;53.370;-6.314;2022-11-10T03:01:54;100230.56;;;13.15;100.00
29935;BME280;19905;53.370;-6.314;2022-11-10T03:04:23;100231.53;;;13.24;100.00
29935;BME280;19905;53.370;-6.314;2022-11-10T03:06:52;100229.97;;;13.21;100.00
29935;BME280;19905;53.370;-6.314;2022-11-10T03:09:21;100221.31;;;13.19;100.00
29935;BME280;19905;53.370;-6.314;2022-11-10T03:11:50;100232.78;;;13.20;100.00
29935;BME280;19905;53.370;-6.314;2022-11-10T03:14:20;100230.25;;;13.18;100.00
29935;BME280;19905;53.370;-6.314;2022-11-10T03:16:48;100214.31;;;13.18;100.00
29935;BME280;19905;53.370;-6.314;2022-11-10T03:19:17;100222.00;;;13.21;100.00
29935;BME280;19905;53.370;-6.314;2022-11-10T03:21:46;100237.50;;;13.26;100.00
29935;BME280;19905;53.370;-6.314;2022-11-10T03:24:15;100231.22;;;13.27;100.00
29935;BME280;19905;53.370;-6.314;2022-11-10T03:26:44;100220.88;;;13.34;100.00
29935;BME280;19905;53.370;-6.314;2022-11-10T03:29:13;100243.16;;;13.41;100.00
29935;BME280;19905;53.370;-6.314;2022-11-10T03:31:43;100223.91;;;13.39;100.00
29935;BME280;19905;53.370;-6.314;2022-11-10T03:34:11;100219.56;;;13.47;100.00
29935;BME280;19905;53.370;-6.314;2022-11-10T03:36:40;100230.44;;;13.44;100.00
29935;BME280;19905;53.370;-6.314;2022-11-10T03:39:08;100241.22;;;13.43;100.00
29935;BME280;19905;53.370;-6.314;2022-11-10T03:41:37;100225.53;;;13.50;100.00
29935;BME280;19905;53.370;-6.314;2022-11-10T03:44:06;100212.81;;;13.53;100.00
29935;BME280;19905;53.370;-6.314;2022-11-10T03:46:35;100221.94;;;13.41;100.00
29935;BME280;19905;53.370;-6.314;2022-11-10T03:49:10;100218.28;;;13.42;100.00
29935;BME280;19905;53.370;-6.314;2022-11-10T03:51:39;100212.09;;;13.33;100.00
29935;BME280;19905;53.370;-6.314;2022-11-10T03:54:07;100211.16;;;13.25;100.00
29935;BME280;19905;53.370;-6.314;2022-11-10T03:56:36;100219.56;;;13.10;100.00
29935;BME280;19905;53.370;-6.314;2022-11-10T03:59:05;100229.72;;;13.05;100.00
29935;BME280;19905;53.370;-6.314;2022-11-10T04:01:33;100242.34;;;12.93;100.00
29935;BME280;19905;53.370;-6.314;2022-11-10T04:04:02;100245.41;;;12.89;100.00
29935;BME280;19905;53.370;-6.314;2022-11-10T04:06:32;100245.97;;;12.83;100.00
29935;BME280;19905;53.370;-6.314;2022-11-10T04:09:18;100257.53;;;12.91;100.00
29935;BME280;19905;53.370;-6.314;2022-11-10T04:11:48;100247.38;;;12.87;100.00
29935;BME280;19905;53.370;-6.314;2022-11-10T04:14:36;100250.16;;;12.85;100.00
29935;BME280;19905;53.370;-6.314;2022-11-10T04:17:22;100251.00;;;12.86;100.00
29935;BME280;19905;53.370;-6.314;2022-11-10T04:19:50;100252.25;;;12.82;100.00
29935;BME280;19905;53.370;-6.314;2022-11-10T04:22:20;100269.56;;;12.76;100.00
29935;BME280;19905;53.370;-6.314;2022-11-10T04:25:03;100260.22;;;12.82;100.00
29935;BME280;19905;53.370;-6.314;2022-11-10T04:27:32;100264.66;;;12.91;100.00
29935;BME280;19905;53.370;-6.314;2022-11-10T04:30:00;100239.38;;;12.96;100.00
29935;BME280;19905;53.370;-6.314;2022-11-10T04:32:28;100239.53;;;12.95;100.00
29935;BME280;19905;53.370;-6.314;2022-11-10T04:34:57;100224.06;;;12.90;100.00
29935;BME280;19905;53.370;-6.314;2022-11-10T04:37:27;100224.78;;;12.92;100.00
29935;BME280;19905;53.370;-6.314;2022-11-10T04:39:55;100242.47;;;13.02;100.00
29935;BME280;19905;53.370;-6.314;2022-11-10T04:42:24;100237.59;;;12.97;100.00
29935;BME280;19905;53.370;-6.314;2022-11-10T04:44:52;100249.28;;;13.04;100.00
29935;BME280;19905;53.370;-6.314;2022-11-10T04:47:21;100229.88;;;13.04;100.00
29935;BME280;19905;53.370;-6.314;2022-11-10T04:49:50;100246.63;;;13.04;100.00
29935;BME280;19905;53.370;-6.314;2022-11-10T04:52:18;100253.44;;;13.16;100.00
29935;BME280;19905;53.370;-6.314;2022-11-10T04:54:49;100253.94;;;13.39;100.00
29935;BME280;19905;53.370;-6.314;2022-11-10T04:57:17;100249.75;;;13.37;100.00
29935;BME280;19905;53.370;-6.314;2022-11-10T04:59:47;100218.75;;;13.37;100.00
29935;BME280;19905;53.370;-6.314;2022-11-10T05:02:17;100235.75;;;13.44;100.00
29935;BME280;19905;53.370;-6.314;2022-11-10T05:04:45;100231.56;;;13.42;100.00
29935;BME280;19905;53.370;-6.314;2022-11-10T05:07:14;100233.31;;;13.51;100.00
29935;BME280;19905;53.370;-6.314;2022-11-10T05:09:44;100249.91;;;13.63;100.00
29935;BME280;19905;53.370;-6.314;2022-11-10T05:12:14;100240.06;;;13.73;100.00
29935;BME280;19905;53.370;-6.314;2022-11-10T05:14:48;100237.72;;;13.70;100.00
29935;BME280;19905;53.370;-6.314;2022-11-10T05:17:17;100240.66;;;13.67;100.00
29935;BME280;19905;53.370;-6.314;2022-11-10T05:19:45;100269.81;;;13.77;100.00
29935;BME280;19905;53.370;-6.314;2022-11-10T05:22:14;100247.03;;;13.74;100.00
29935;BME280;19905;53.370;-6.314;2022-11-10T05:24:42;100257.25;;;13.69;100.00
29935;BME280;19905;53.370;-6.314;2022-11-10T05:27:11;100235.75;;;13.72;100.00
29935;BME280;19905;53.370;-6.314;2022-11-10T05:29:41;100272.91;;;13.72;100.00
29935;BME280;19905;53.370;-6.314;2022-11-10T05:32:10;100262.19;;;13.64;100.00
29935;BME280;19905;53.370;-6.314;2022-11-10T05:34:38;100264.34;;;13.51;100.00
29935;BME280;19905;53.370;-6.314;2022-11-10T05:37:07;100269.13;;;13.47;100.00
29935;BME280;19905;53.370;-6.314;2022-11-10T05:39:36;100287.66;;;13.57;100.00
29935;BME280;19905;53.370;-6.314;2022-11-10T05:42:04;100280.38;;;13.59;100.00
29935;BME280;19905;53.370;-6.314;2022-11-10T05:44:33;100270.63;;;13.50;100.00
29935;BME280;19905;53.370;-6.314;2022-11-10T05:47:04;100282.47;;;13.55;100.00
29935;BME280;19905;53.370;-6.314;2022-11-10T05:49:33;100285.44;;;13.52;100.00
29935;BME280;19905;53.370;-6.314;2022-11-10T05:52:01;100269.25;;;13.45;100.00
29935;BME280;19905;53.370;-6.314;2022-11-10T05:54:31;100279.88;;;13.45;100.00
29935;BME280;19905;53.370;-6.314;2022-11-10T05:56:59;100267.97;;;13.50;100.00
29935;BME280;19905;53.370;-6.314;2022-11-10T05:59:28;100255.25;;;13.53;100.00
29935;BME280;19905;53.370;-6.314;2022-11-10T06:01:56;100276.81;;;13.68;100.00
29935;BME280;19905;53.370;-6.314;2022-11-10T06:04:27;100246.06;;;13.75;100.00
29935;BME280;19905;53.370;-6.314;2022-11-10T06:06:56;100254.16;;;13.73;100.00
29935;BME280;19905;53.370;-6.314;2022-11-10T06:09:24;100250.38;;;13.76;100.00
29935;BME280;19905;53.370;-6.314;2022-11-10T06:11:53;100255.59;;;13.68;100.00
29935;BME280;19905;53.370;-6.314;2022-11-10T06:14:21;100256.59;;;13.67;100.00
29935;BME280;19905;53.370;-6.314;2022-11-10T06:16:50;100255.22;;;13.63;100.00
29935;BME280;19905;53.370;-6.314;2022-11-10T06:19:20;100253.66;;;13.60;100.00
29935;BME280;19905;53.370;-6.314;2022-11-10T06:21:50;100252.31;;;13.56;100.00
29935;BME280;19905;53.370;-6.314;2022-11-10T06:24:29;100248.81;;;13.56;100.00
29935;BME280;19905;53.370;-6.314;2022-11-10T06:26:58;100244.50;;;13.55;100.00
29935;BME280;19905;53.370;-6.314;2022-11-10T06:29:26;100250.78;;;13.54;100.00
29935;BME280;19905;53.370;-6.314;2022-11-10T06:31:56;100246.56;;;13.61;100.00
29935;BME280;19905;53.370;-6.314;2022-11-10T06:34:25;100247.69;;;13.58;100.00
29935;BME280;19905;53.370;-6.314;2022-11-10T06:36:55;100253.28;;;13.55;100.00
29935;BME280;19905;53.370;-6.314;2022-11-10T06:39:24;100247.25;;;13.63;100.00
29935;BME280;19905;53.370;-6.314;2022-11-10T06:41:52;100244.31;;;13.66;100.00
29935;BME280;19905;53.370;-6.314;2022-11-10T06:44:21;100251.28;;;13.67;100.00
29935;BME280;19905;53.370;-6.314;2022-11-10T06:46:50;100243.06;;;13.60;100.00
29935;BME280;19905;53.370;-6.314;2022-11-10T06:49:20;100251.56;;;13.64;100.00
29935;BME280;19905;53.370;-6.314;2022-11-10T06:51:50;100259.59;;;13.54;100.00
29935;BME280;19905;53.370;-6.314;2022-11-10T06:54:29;100262.53;;;13.51;100.00
29935;BME280;19905;53.370;-6.314;2022-11-10T06:56:58;100256.78;;;13.56;100.00
29935;BME280;19905;53.370;-6.314;2022-11-10T06:59:27;100267.09;;;13.59;100.00
29935;BME280;19905;53.370;-6.314;2022-11-10T07:01:56;100262.19;;;13.64;100.00
29935;BME280;19905;53.370;-6.314;2022-11-10T07:04:25;100276.81;;;13.68;100.00
29935;BME280;19905;53.370;-6.314;2022-11-10T07:06:53;100271.38;;;13.69;100.00
29935;BME280;19905;53.370;-6.314;2022-11-10T07:09:22;100303.09;;;13.71;100.00
29935;BME280;19905;53.370;-6.314;2022-11-10T07:11:52;100280.81;;;13.82;100.00
29935;BME280;19905;53.370;-6.314;2022-11-10T07:14:21;100298.06;;;13.68;100.00
29935;BME280;19905;53.370;-6.314;2022-11-10T07:16:50;100291.59;;;13.80;100.00
29935;BME280;19905;53.370;-6.314;2022-11-10T07:19:19;100293.97;;;13.73;100.00
29935;BME280;19905;53.370;-6.314;2022-11-10T07:21:48;100279.19;;;13.71;100.00
29935;BME280;19905;53.370;-6.314;2022-11-10T07:24:17;100297.38;;;13.66;100.00
29935;BME280;19905;53.370;-6.314;2022-11-10T07:26:45;100280.63;;;13.65;100.00
29935;BME280;19905;53.370;-6.314;2022-11-10T07:29:15;100313.75;;;13.61;100.00
29935;BME280;19905;53.370;-6.314;2022-11-10T07:31:44;100313.31;;;13.66;100.00
29935;BME280;19905;53.370;-6.314;2022-11-10T07:34:12;100329.25;;;13.66;100.00
29935;BME280;19905;53.370;-6.314;2022-11-10T07:36:44;100324.38;;;13.61;100.00
29935;BME280;19905;53.370;-6.314;2022-11-10T07:39:13;100305.34;;;13.66;100.00
29935;BME280;19905;53.370;-6.314;2022-11-10T07:41:44;100281.16;;;13.69;100.00
29935;BME280;19905;53.370;-6.314;2022-11-10T07:44:21;100294.81;;;13.74;100.00
29935;BME280;19905;53.370;-6.314;2022-11-10T07:46:54;100287.00;;;13.72;100.00
29935;BME280;19905;53.370;-6.314;2022-11-10T07:49:29;100300.44;;;13.71;100.00
29935;BME280;19905;53.370;-6.314;2022-11-10T07:51:57;100293.97;;;13.73;100.00
29935;BME280;19905;53.370;-6.314;2022-11-10T07:54:29;100306.97;;;13.77;100.00
29935;BME280;19905;53.370;-6.314;2022-11-10T07:57:07;100319.25;;;13.78;100.00
29935;BME280;19905;53.370;-6.314;2022-11-10T07:59:49;100306.28;;;13.75;100.00
29935;BME280;19905;53.370;-6.314;2022-11-10T08:02:35;100318.56;;;13.76;100.00
29935;BME280;19905;53.370;-6.314;2022-11-10T08:05:16;100314.25;;;13.75;100.00
29935;BME280;19905;53.370;-6.314;2022-11-10T08:08:09;100306.13;;;13.76;100.00
29935;BME280;19905;53.370;-6.314;2022-11-10T08:10:55;100308.25;;;13.72;100.00
29935;BME280;19905;53.370;-6.314;2022-11-10T08:13:42;100325.50;;;13.86;100.00
29935;BME280;19905;53.370;-6.314;2022-11-10T08:16:27;100292.50;;;13.89;100.00
29935;BME280;19905;53.370;-6.314;2022-11-10T08:19:05;100297.38;;;13.93;100.00
29935;BME280;19905;53.370;-6.314;2022-11-10T08:21:40;100293.91;;;13.93;100.00
29935;BME280;19905;53.370;-6.314;2022-11-10T08:24:19;100303.59;;;13.84;100.00
29935;BME280;19905;53.370;-6.314;2022-11-10T08:26:56;100311.09;;;13.89;100.00
29935;BME280;19905;53.370;-6.314;2022-11-10T08:29:25;100313.22;;;13.85;100.00
29935;BME280;19905;53.370;-6.314;2022-11-10T08:31:56;100314.72;;;13.88;100.00
29935;BME280;19905;53.370;-6.314;2022-11-10T08:34:26;100318.91;;;13.90;100.00
29935;BME280;19905;53.370;-6.314;2022-11-10T08:36:55;100314.72;;;13.88;100.00
29935;BME280;19905;53.370;-6.314;2022-11-10T08:39:23;100315.13;;;13.93;100.00
29935;BME280;19905;53.370;-6.314;2022-11-10T08:42:05;100328.41;;;13.93;100.00
29935;BME280;19905;53.370;-6.314;2022-11-10T08:44:34;100326.97;;;13.98;100.00
29935;BME280;19905;53.370;-6.314;2022-11-10T08:47:05;100337.94;;;14.13;100.00
29935;BME280;19905;53.370;-6.314;2022-11-10T08:49:34;100340.41;;;14.15;100.00
29935;BME280;19905;53.370;-6.314;2022-11-10T08:52:03;100328.84;;;14.16;100.00
29935;BME280;19905;53.370;-6.314;2022-11-10T08:54:31;100325.84;;;14.19;100.00
29935;BME280;19905;53.370;-6.314;2022-11-10T08:57:01;100318.72;;;14.19;100.00
29935;BME280;19905;53.370;-6.314;2022-11-10T08:59:29;100317.88;;;14.19;100.00
29935;BME280;19905;53.370;-6.314;2022-11-10T09:01:58;100326.13;;;14.26;100.00
29935;BME280;19905;53.370;-6.314;2022-11-10T09:04:29;100326.63;;;14.29;100.00
29935;BME280;19905;53.370;-6.314;2022-11-10T09:06:58;100332.53;;;14.23;100.00
29935;BME280;19905;53.370;-6.314;2022-11-10T09:09:27;100304.09;;;14.33;100.00
29935;BME280;19905;53.370;-6.314;2022-11-10T09:11:56;100318.75;;;14.37;100.00
29935;BME280;19905;53.370;-6.314;2022-11-10T09:14:25;100369.38;;;14.36;100.00
29935;BME280;19905;53.370;-6.314;2022-11-10T09:16:53;100344.19;;;14.40;100.00
29935;BME280;19905;53.370;-6.314;2022-11-10T09:19:22;100332.03;;;14.37;100.00
29935;BME280;19905;53.370;-6.314;2022-11-10T09:21:53;100320.03;;;14.33;100.00
29935;BME280;19905;53.370;-6.314;2022-11-10T09:24:21;100321.56;;;14.36;100.00
29935;BME280;19905;53.370;-6.314;2022-11-10T09:26:57;100324.88;;;14.38;100.00
29935;BME280;19905;53.370;-6.314;2022-11-10T09:29:25;100341.97;;;14.35;100.00
29935;BME280;19905;53.370;-6.314;2022-11-10T09:31:54;100344.84;;;14.42;100.00
29935;BME280;19905;53.370;-6.314;2022-11-10T09:34:23;100367.28;;;14.39;100.00
29935;BME280;19905;53.370;-6.314;2022-11-10T09:36:54;100366.28;;;14.40;100.00
29935;BME280;19905;53.370;-6.314;2022-11-10T09:39:25;100361.88;;;14.31;100.00
29935;BME280;19905;53.370;-6.314;2022-11-10T09:41:54;100379.25;;;14.26;100.00
29935;BME280;19905;53.370;-6.314;2022-11-10T09:44:24;100372.41;;;14.23;100.00
29935;BME280;19905;53.370;-6.314;2022-11-10T09:46:58;100378.84;;;14.20;100.00
29935;BME280;19905;53.370;-6.314;2022-11-10T09:49:32;100401.00;;;14.11;100.00
29935;BME280;19905;53.370;-6.314;2022-11-10T09:52:04;100395.25;;;14.06;100.00
29935;BME280;19905;53.370;-6.314;2022-11-10T09:54:39;100410.38;;;14.06;100.00
29935;BME280;19905;53.370;-6.314;2022-11-10T09:57:12;100403.72;;;14.19;100.00
29935;BME280;19905;53.370;-6.314;2022-11-10T09:59:43;100413.47;;;14.29;100.00
29935;BME280;19905;53.370;-6.314;2022-11-10T10:02:20;100384.38;;;14.55;100.00
29935;BME280;19905;53.370;-6.314;2022-11-10T10:05:09;100390.47;;;14.65;100.00
29935;BME280;19905;53.370;-6.314;2022-11-10T10:07:55;100357.97;;;14.71;100.00
29935;BME280;19905;53.370;-6.314;2022-11-10T10:10:32;100359.03;;;14.78;100.00
29935;BME280;19905;53.370;-6.314;2022-11-10T10:13:19;100350.28;;;14.86;100.00
29935;BME280;19905;53.370;-6.314;2022-11-10T10:16:00;100354.41;;;14.80;100.00
29935;BME280;19905;53.370;-6.314;2022-11-10T10:18:35;100380.75;;;14.91;100.00
29935;BME280;19905;53.370;-6.314;2022-11-10T10:21:22;100375.72;;;14.88;100.00
29935;BME280;19905;53.370;-6.314;2022-11-10T10:23:58;100391.69;;;14.88;100.00
29935;BME280;19905;53.370;-6.314;2022-11-10T10:26:41;100375.06;;;14.86;100.00
29935;BME280;19905;53.370;-6.314;2022-11-10T10:29:17;100395.34;;;14.87;100.00
29935;BME280;19905;53.370;-6.314;2022-11-10T10:31:48;100395.25;;;14.79;100.00
29935;BME280;19905;53.370;-6.314;2022-11-10T10:34:20;100382.94;;;14.78;100.00
29935;BME280;19905;53.370;-6.314;2022-11-10T10:36:50;100392.91;;;14.76;100.00
29935;BME280;19905;53.370;-6.314;2022-11-10T10:39:26;100398.06;;;14.78;100.00
29935;BME280;19905;53.370;-6.314;2022-11-10T10:41:56;100406.44;;;14.83;100.00
29935;BME280;19905;53.370;-6.314;2022-11-10T10:44:25;100376.13;;;14.76;100.00
29935;BME280;19905;53.370;-6.314;2022-11-10T10:46:56;100380.38;;;14.86;100.00
29935;BME280;19905;53.370;-6.314;2022-11-10T10:49:27;100417.28;;;15.07;100.00
29935;BME280;19905;53.370;-6.314;2022-11-10T10:52:05;100367.69;;;15.24;100.00
29935;BME280;19905;53.370;-6.314;2022-11-10T10:54:36;100356.84;;;15.43;100.00
29935;BME280;19905;53.370;-6.314;2022-11-10T10:57:20;100361.91;;;15.55;100.00
29935;BME280;19905;53.370;-6.314;2022-11-10T10:59:50;100354.50;;;15.66;100.00
29935;BME280;19905;53.370;-6.314;2022-11-10T11:02:25;100326.13;;;15.57;100.00
29935;BME280;19905;53.370;-6.314;2022-11-10T11:05:10;100343.53;;;15.43;100.00
29935;BME280;19905;53.370;-6.314;2022-11-10T11:07:39;100366.50;;;15.44;100.00
29935;BME280;19905;53.370;-6.314;2022-11-10T11:10:22;100398.41;;;15.36;100.00
29935;BME280;19905;53.370;-6.314;2022-11-10T11:12:51;100386.75;;;15.37;100.00
29935;BME280;19905;53.370;-6.314;2022-11-10T11:15:22;100348.66;;;15.63;100.00
29935;BME280;19905;53.370;-6.314;2022-11-10T11:17:54;100344.31;;;15.96;100.00
29935;BME280;19905;53.370;-6.314;2022-11-10T11:20:29;100364.47;;;15.90;100.00
29935;BME280;19905;53.370;-6.314;2022-11-10T11:23:03;100342.59;;;15.79;100.00
29935;BME280;19905;53.370;-6.314;2022-11-10T11:25:40;100349.38;;;15.73;100.00
29935;BME280;19905;53.370;-6.314;2022-11-10T11:28:16;100339.25;;;15.77;100.00
29935;BME280;19905;53.370;-6.314;2022-11-10T11:30:58;100322.31;;;15.86;100.00
29935;BME280;19905;53.370;-6.314;2022-11-10T11:33:37;100331.06;;;15.70;100.00
29935;BME280;19905;53.370;-6.314;2022-11-10T11:36:16;100319.44;;;15.79;100.00
29935;BME280;19905;53.370;-6.314;2022-11-10T11:38:55;100349.44;;;15.81;100.00
29935;BME280;19905;53.370;-6.314;2022-11-10T11:41:36;100332.97;;;15.94;100.00
29935;BME280;19905;53.370;-6.314;2022-11-10T11:44:14;100342.66;;;16.03;100.00
29935;BME280;19905;53.370;-6.314;2022-11-10T11:46:54;100333.16;;;15.92;100.00
29935;BME280;19905;53.370;-6.314;2022-11-10T11:49:40;100337.06;;;15.72;100.00
29935;BME280;19905;53.370;-6.314;2022-11-10T11:52:25;100339.78;;;15.88;100.00
29935;BME280;19905;53.370;-6.314;2022-11-10T11:55:16;100315.50;;;15.91;100.00
29935;BME280;19905;53.370;-6.314;2022-11-10T11:58:09;100331.59;;;15.73;100.00
29935;BME280;19905;53.370;-6.314;2022-11-10T12:00:47;100371.34;;;15.75;100.00
29935;BME280;19905;53.370;-6.314;2022-11-10T12:03:30;100344.06;;;15.73;100.00
29935;BME280;19905;53.370;-6.314;2022-11-10T12:06:15;100368.38;;;15.78;100.00
29935;BME280;19905;53.370;-6.314;2022-11-10T12:08:54;100366.03;;;15.75;100.00
29935;BME280;19905;53.370;-6.314;2022-11-10T12:11:34;100368.19;;;15.71;100.00
29935;BME280;19905;53.370;-6.314;2022-11-10T12:14:12;100360.75;;;15.57;100.00
29935;BME280;19905;53.370;-6.314;2022-11-10T12:16:52;100364.41;;;15.56;100.00
29935;BME280;19905;53.370;-6.314;2022-11-10T12:19:29;100383.69;;;15.50;100.00
29935;BME280;19905;53.370;-6.314;2022-11-10T12:22:07;100367.44;;;15.35;100.00
29935;BME280;19905;53.370;-6.314;2022-11-10T12:24:51;100362.75;;;15.29;100.00
29935;BME280;19905;53.370;-6.314;2022-11-10T12:27:26;100362.13;;;15.35;100.00
29935;BME280;19905;53.370;-6.314;2022-11-10T12:30:01;100365.75;;;15.60;100.00
29935;BME280;19905;53.370;-6.314;2022-11-10T12:32:36;100352.16;;;15.63;100.00
29935;BME280;19905;53.370;-6.314;2022-11-10T12:35:13;100354.28;;;15.60;100.00
29935;BME280;19905;53.370;-6.314;2022-11-10T12:37:46;100347.78;;;15.54;100.00
29935;BME280;19905;53.370;-6.314;2022-11-10T12:40:20;100349.44;;;15.55;100.00
29935;BME280;19905;53.370;-6.314;2022-11-10T12:42:55;100380.72;;;15.61;100.00
29935;BME280;19905;53.370;-6.314;2022-11-10T12:45:31;100374.03;;;15.49;100.00
29935;BME280;19905;53.370;-6.314;2022-11-10T12:48:04;100371.41;;;15.31;100.00
29935;BME280;19905;53.370;-6.314;2022-11-10T12:50:41;100377.75;;;15.38;100.00
29935;BME280;19905;53.370;-6.314;2022-11-10T12:53:20;100359.03;;;15.22;100.00
29935;BME280;19905;53.370;-6.314;2022-11-10T12:55:54;100352.91;;;15.21;100.00